Terminal Aerodrome Forecast
Issued by NWS Bismarck, ND

Home | Current Version | Previous Version | Text Only | Print | Product List | Glossary Off
Versions: 1 2 3 4 5 6 7 8 9 10 11 12 13 14

672
FTUS43 KBIS 290532
TAFISN
TAF
KISN 290532Z 2906/3006 36009KT P6SM SCT250
     FM291500 03008KT P6SM SCT250
     FM292100 06008KT P6SM FEW250
     FM292300 09008KT P6SM FEW250=

USA.gov is the U.S. government's official web portal to all federal, state and local government web resources and services.